createdAt,value
2023-04-13T00:00:37.377Z,4.30
2023-04-13T00:03:07.916Z,4.24
2023-04-13T00:05:38.050Z,4.19
2023-04-13T00:08:07.128Z,4.21
2023-04-13T00:10:37.338Z,4.19
2023-04-13T00:13:08.441Z,4.15
2023-04-13T00:15:38.840Z,4.06
2023-04-13T00:18:09.076Z,4.06
2023-04-13T00:20:37.556Z,4.03
2023-04-13T00:23:06.314Z,3.96
2023-04-13T00:25:34.817Z,3.91
2023-04-13T00:28:06.435Z,3.86
2023-04-13T00:30:36.924Z,3.81
2023-04-13T00:33:06.597Z,3.76
2023-04-13T00:35:35.559Z,3.71
2023-04-13T00:38:04.935Z,3.67
2023-04-13T00:40:33.512Z,3.59
2023-04-13T00:43:02.610Z,3.51
2023-04-13T00:45:31.492Z,3.43
2023-04-13T00:48:01.515Z,3.41
2023-04-13T00:50:30.321Z,3.36
2023-04-13T00:52:59.195Z,3.37
2023-04-13T00:55:29.103Z,3.31
2023-04-13T00:58:02.241Z,3.24
2023-04-13T01:00:30.973Z,3.18
2023-04-13T01:03:02.059Z,3.13
2023-04-13T01:05:38.826Z,3.05
2023-04-13T01:08:16.340Z,2.96
2023-04-13T01:10:54.623Z,2.90
2023-04-13T01:13:30.435Z,2.87
2023-04-13T01:16:05.095Z,2.84
2023-04-13T01:18:41.937Z,2.80
2023-04-13T01:21:19.638Z,2.90
2023-04-13T01:23:57.824Z,2.94
2023-04-13T01:26:38.878Z,2.98
2023-04-13T01:29:10.270Z,2.96
2023-04-13T01:31:39.783Z,2.92
2023-04-13T01:34:08.372Z,2.87
2023-04-13T01:36:40.168Z,2.82
2023-04-13T01:39:09.213Z,2.78
2023-04-13T01:41:38.357Z,2.77
2023-04-13T01:44:09.109Z,2.75
2023-04-13T01:46:39.677Z,2.72
2023-04-13T01:49:16.520Z,2.67
2023-04-13T01:51:53.604Z,2.68
2023-04-13T01:54:29.008Z,2.64
2023-04-13T01:57:00.386Z,2.58
2023-04-13T01:59:30.820Z,2.51
2023-04-13T02:02:00.126Z,2.53
2023-04-13T02:04:29.612Z,2.50
2023-04-13T02:06:59.376Z,2.49
2023-04-13T02:09:33.404Z,2.46
2023-04-13T02:12:01.863Z,2.46
2023-04-13T02:14:32.241Z,2.45
2023-04-13T02:17:00.558Z,2.45
2023-04-13T02:19:30.176Z,2.51
2023-04-13T02:21:58.483Z,2.49
2023-04-13T02:24:26.814Z,2.43
2023-04-13T02:26:58.203Z,2.30
2023-04-13T02:29:26.709Z,2.21
2023-04-13T02:31:56.844Z,2.13
2023-04-13T02:34:25.855Z,2.11
2023-04-13T02:37:03.110Z,2.05
2023-04-13T02:39:33.140Z,2.03
2023-04-13T02:42:02.560Z,1.98
2023-04-13T02:44:34.274Z,1.89
2023-04-13T02:47:04.635Z,1.84
2023-04-13T02:49:33.153Z,1.82
2023-04-13T02:52:15.949Z,1.77
2023-04-13T02:54:57.114Z,1.71
2023-04-13T02:57:31.168Z,1.68
2023-04-13T03:00:01.798Z,1.68
2023-04-13T03:02:44.869Z,1.65
2023-04-13T03:05:15.477Z,1.61
2023-04-13T03:07:45.514Z,1.57
2023-04-13T03:10:14.246Z,1.54
2023-04-13T03:12:45.789Z,1.51
2023-04-13T03:15:15.056Z,1.48
2023-04-13T03:17:45.354Z,1.42
2023-04-13T03:20:22.802Z,1.37
2023-04-13T03:22:58.782Z,1.33
2023-04-13T03:25:33.659Z,1.28
2023-04-13T03:28:03.869Z,1.28
2023-04-13T03:30:38.265Z,1.41
2023-04-13T03:33:08.539Z,1.49
2023-04-13T03:35:39.707Z,1.54
2023-04-13T03:38:15.682Z,1.58
2023-04-13T03:40:47.124Z,1.55
2023-04-13T03:43:17.432Z,1.52
2023-04-13T03:45:51.867Z,1.49
2023-04-13T03:48:22.809Z,1.43
2023-04-13T03:50:52.036Z,1.42
2023-04-13T03:53:26.378Z,1.42
2023-04-13T03:55:58.622Z,1.45
2023-04-13T03:58:28.160Z,1.48
2023-04-13T04:00:57.478Z,1.51
2023-04-13T04:03:44.232Z,1.58
2023-04-13T04:06:13.603Z,1.65
2023-04-13T04:08:49.973Z,1.72
2023-04-13T04:11:38.795Z,1.81
2023-04-13T04:14:09.303Z,1.85
2023-04-13T04:16:38.731Z,1.87
2023-04-13T04:19:15.835Z,1.90
2023-04-13T04:21:47.494Z,1.90
2023-04-13T04:24:23.082Z,1.89
2023-04-13T04:26:58.265Z,1.88
2023-04-13T04:29:34.411Z,1.89
2023-04-13T04:32:24.443Z,1.84
2023-04-13T04:34:56.688Z,1.84
2023-04-13T04:37:26.814Z,1.81
2023-04-13T04:40:09.961Z,1.81
2023-04-13T04:42:40.708Z,1.90
2023-04-13T04:45:16.842Z,1.95
2023-04-13T04:47:50.048Z,2.04
2023-04-13T04:50:26.248Z,2.13
2023-04-13T04:53:12.342Z,2.21
2023-04-13T04:55:41.291Z,2.29
2023-04-13T04:58:19.598Z,2.24
2023-04-13T05:00:53.978Z,2.26
2023-04-13T05:03:23.229Z,2.31
2023-04-13T05:06:00.252Z,2.41
2023-04-13T05:08:32.315Z,2.55
2023-04-13T05:11:02.724Z,2.64
2023-04-13T05:13:31.766Z,2.68
2023-04-13T05:16:34.832Z,2.80
2023-04-13T05:19:12.983Z,2.93
2023-04-13T05:21:55.770Z,3.08
2023-04-13T05:24:25.652Z,3.16
2023-04-13T05:26:56.741Z,3.27
2023-04-13T05:29:25.325Z,3.36
2023-04-13T05:31:54.226Z,3.48
2023-04-13T05:34:24.550Z,3.59
2023-04-13T05:37:10.642Z,3.71
2023-04-13T05:39:40.314Z,3.84
2023-04-13T05:42:10.281Z,3.99
2023-04-13T05:44:44.377Z,4.12
2023-04-13T05:47:14.697Z,4.23
2023-04-13T05:49:46.296Z,4.36
2023-04-13T05:52:17.939Z,4.49
2023-04-13T05:54:50.197Z,4.65
2023-04-13T05:57:22.164Z,4.80
2023-04-13T05:59:54.416Z,4.95
2023-04-13T06:02:27.382Z,5.10
2023-04-13T06:04:56.842Z,5.26
2023-04-13T06:07:28.347Z,5.48
2023-04-13T06:09:56.888Z,5.75
2023-04-13T06:12:26.054Z,6.00
2023-04-13T06:14:54.816Z,6.30
2023-04-13T06:17:23.368Z,6.58
2023-04-13T06:19:52.869Z,6.87
2023-04-13T06:22:21.455Z,7.09
2023-04-13T06:24:52.837Z,7.32
2023-04-13T06:27:21.844Z,7.57
2023-04-13T06:29:52.307Z,7.80
2023-04-13T06:32:21.093Z,8.01
2023-04-13T06:34:50.230Z,8.19
2023-04-13T06:37:20.932Z,8.42
2023-04-13T06:39:54.286Z,8.63
2023-04-13T06:42:23.795Z,8.85
2023-04-13T06:45:24.686Z,9.09
2023-04-13T06:47:56.286Z,9.29
2023-04-13T06:50:26.635Z,9.48
2023-04-13T06:53:00.597Z,9.71
2023-04-13T06:55:31.188Z,9.89
2023-04-13T06:58:00.522Z,9.99
2023-04-13T07:00:30.661Z,10.16
2023-04-13T07:03:02.143Z,10.31
2023-04-13T07:05:32.231Z,10.55
2023-04-13T07:08:09.223Z,10.75
2023-04-13T07:10:41.162Z,10.94
2023-04-13T07:13:18.517Z,11.19
2023-04-13T07:15:48.344Z,11.37
2023-04-13T07:18:17.180Z,11.60
2023-04-13T07:20:45.706Z,11.74
2023-04-13T07:23:15.841Z,11.85
2023-04-13T07:25:46.856Z,12.06
2023-04-13T07:28:21.487Z,12.22
2023-04-13T07:30:53.486Z,12.36
2023-04-13T07:33:23.009Z,12.48
2023-04-13T07:35:54.855Z,12.64
2023-04-13T07:38:27.700Z,12.91
2023-04-13T07:40:57.789Z,13.09
2023-04-13T07:43:29.210Z,13.25
2023-04-13T07:46:00.906Z,13.35
2023-04-13T07:48:29.960Z,13.41
2023-04-13T07:51:05.085Z,13.60
2023-04-13T07:53:33.750Z,13.71
2023-04-13T07:56:06.057Z,13.69
2023-04-13T07:58:38.697Z,13.83
2023-04-13T08:01:08.766Z,14.04
2023-04-13T08:03:38.071Z,14.21
2023-04-13T08:06:14.669Z,14.50
2023-04-13T08:08:44.203Z,14.76
2023-04-13T08:11:14.637Z,15.00
2023-04-13T08:13:45.005Z,15.19
2023-04-13T08:16:14.271Z,15.44
2023-04-13T08:18:43.831Z,15.72
2023-04-13T08:21:15.407Z,15.94
2023-04-13T08:23:46.948Z,15.93
2023-04-13T08:26:21.103Z,15.88
2023-04-13T08:28:50.775Z,16.21
2023-04-13T08:31:19.723Z,16.55
2023-04-13T08:33:57.476Z,16.90
2023-04-13T08:36:27.618Z,17.05
2023-04-13T08:39:05.535Z,17.26
2023-04-13T08:41:41.174Z,17.56
2023-04-13T08:44:13.647Z,17.57
2023-04-13T08:46:46.892Z,17.62
2023-04-13T08:49:19.188Z,17.87
2023-04-13T08:52:09.162Z,18.02
2023-04-13T08:54:39.287Z,18.34
2023-04-13T08:57:17.223Z,18.48
2023-04-13T08:59:46.514Z,18.59
2023-04-13T09:02:16.011Z,18.89
2023-04-13T09:04:55.701Z,18.84
2023-04-13T09:07:28.093Z,18.68
2023-04-13T09:10:02.748Z,18.57
2023-04-13T09:12:33.637Z,18.79
2023-04-13T09:15:06.404Z,19.17
2023-04-13T09:17:40.119Z,19.40
2023-04-13T09:20:18.501Z,19.36
2023-04-13T09:22:46.965Z,19.44
2023-04-13T09:25:23.629Z,19.80
2023-04-13T09:27:54.803Z,20.16
2023-04-13T09:30:24.650Z,20.39
2023-04-13T09:33:05.438Z,20.67
2023-04-13T09:35:35.577Z,20.97
2023-04-13T09:38:05.121Z,21.30
2023-04-13T09:40:38.413Z,21.10
2023-04-13T09:43:09.862Z,20.77
2023-04-13T09:45:42.217Z,20.82
2023-04-13T09:48:18.716Z,20.73
2023-04-13T09:50:58.661Z,20.89
2023-04-13T09:53:28.970Z,20.83
2023-04-13T09:56:01.546Z,20.83
2023-04-13T09:58:32.735Z,21.06
2023-04-13T10:01:02.234Z,21.08
2023-04-13T10:03:35.248Z,20.98
2023-04-13T10:06:07.841Z,21.20
2023-04-13T10:08:39.299Z,21.70
2023-04-13T10:11:14.635Z,22.05
2023-04-13T10:13:51.266Z,22.38
2023-04-13T10:16:52.557Z,22.50
2023-04-13T10:19:26.340Z,22.63
2023-04-13T10:21:55.714Z,22.47
2023-04-13T10:24:26.122Z,22.43
2023-04-13T10:26:56.393Z,22.31
2023-04-13T10:29:31.628Z,22.09
2023-04-13T10:32:03.913Z,21.78
2023-04-13T10:34:34.499Z,21.96
2023-04-13T10:37:06.824Z,22.09
2023-04-13T10:39:37.930Z,22.59
2023-04-13T10:42:07.973Z,22.53
2023-04-13T10:44:46.342Z,22.69
2023-04-13T10:47:16.432Z,22.98
2023-04-13T10:49:46.260Z,22.87
2023-04-13T10:52:16.125Z,22.88
2023-04-13T10:54:47.838Z,23.38
2023-04-13T10:57:17.021Z,23.62
2023-04-13T10:59:57.861Z,23.42
2023-04-13T11:02:31.912Z,23.35
2023-04-13T11:05:02.427Z,23.70
2023-04-13T11:07:31.777Z,23.73
2023-04-13T11:10:06.154Z,23.38
2023-04-13T11:12:35.663Z,22.93
2023-04-13T11:15:09.346Z,22.96
2023-04-13T11:17:38.693Z,23.21
2023-04-13T11:20:11.341Z,23.79
2023-04-13T11:25:16.424Z,24.10
2023-04-13T11:27:49.906Z,23.88
2023-04-13T11:30:24.853Z,23.73
2023-04-13T11:32:54.807Z,23.71
2023-04-13T11:35:24.598Z,23.47
2023-04-13T11:37:55.229Z,23.47
2023-04-13T11:40:25.786Z,23.58
2023-04-13T11:42:55.679Z,23.32
2023-04-13T11:45:27.775Z,23.37
2023-04-13T11:47:57.780Z,23.61
2023-04-13T11:50:27.602Z,23.81
2023-04-13T11:52:58.209Z,23.67
2023-04-13T11:55:27.478Z,23.85
2023-04-13T11:57:56.900Z,24.06
2023-04-13T12:00:28.712Z,24.15
2023-04-13T12:05:31.794Z,23.63
2023-04-13T12:08:01.570Z,23.18
2023-04-13T12:10:40.322Z,23.58
2023-04-13T12:13:24.587Z,23.41
2023-04-13T12:16:11.217Z,23.23
2023-04-13T12:18:47.026Z,23.02
2023-04-13T12:21:17.948Z,23.07
2023-04-13T12:23:54.759Z,23.45
2023-04-13T12:27:10.023Z,23.68
2023-04-13T12:29:15.252Z,23.97
2023-04-13T12:31:45.748Z,24.00
2023-04-13T12:34:14.658Z,24.09
2023-04-13T12:36:43.265Z,24.35
2023-04-13T12:39:12.068Z,24.45
2023-04-13T12:41:41.248Z,24.40
2023-04-13T12:44:10.646Z,24.48
2023-04-13T12:46:39.671Z,24.48
2023-04-13T12:49:10.106Z,24.37
2023-04-13T12:51:38.840Z,24.08
2023-04-13T12:54:13.315Z,24.15
2023-04-13T12:56:42.599Z,24.25
2023-04-13T12:59:11.656Z,24.19
2023-04-13T13:01:40.324Z,24.15
2023-04-13T13:04:10.628Z,24.15
2023-04-13T13:06:39.189Z,24.34
2023-04-13T13:09:08.164Z,24.11
2023-04-13T13:11:37.489Z,23.99
2023-04-13T13:14:07.346Z,24.07
2023-04-13T13:16:37.079Z,23.83
2023-04-13T13:19:06.079Z,23.77
2023-04-13T13:21:37.486Z,23.73
2023-04-13T13:24:07.745Z,23.53
2023-04-13T13:27:00.267Z,23.41
2023-04-13T13:29:26.101Z,23.44
2023-04-13T13:31:54.778Z,23.59
2023-04-13T13:34:23.670Z,23.69
2023-04-13T13:36:53.701Z,23.70
2023-04-13T13:39:23.174Z,23.65
2023-04-13T13:41:52.391Z,23.28
2023-04-13T13:44:21.455Z,23.25
2023-04-13T13:46:50.652Z,23.16
2023-04-13T13:49:22.270Z,23.08
2023-04-13T13:52:10.850Z,22.89
2023-04-13T13:54:50.029Z,22.69
2023-04-13T13:57:18.844Z,22.75
2023-04-13T13:59:49.252Z,22.95
2023-04-13T14:02:18.280Z,23.22
2023-04-13T14:04:47.317Z,23.35
2023-04-13T14:07:17.562Z,23.29
2023-04-13T14:09:47.010Z,22.79
2023-04-13T14:12:16.258Z,22.24
2023-04-13T14:14:45.516Z,22.22
2023-04-13T14:17:14.222Z,22.17
2023-04-13T14:19:42.865Z,22.10
2023-04-13T14:22:11.727Z,22.05
2023-04-13T14:24:41.851Z,22.10
2023-04-13T14:27:12.121Z,22.00
2023-04-13T14:29:41.632Z,21.79
2023-04-13T14:32:10.854Z,21.53
2023-04-13T14:34:39.765Z,21.40
2023-04-13T14:37:10.277Z,21.27
2023-04-13T14:39:39.244Z,21.18
2023-04-13T14:42:09.488Z,20.95
2023-04-13T14:44:38.158Z,20.74
2023-04-13T14:47:09.332Z,20.66
2023-04-13T14:49:38.542Z,20.58
2023-04-13T14:52:07.597Z,20.56
2023-04-13T14:54:36.952Z,20.51
2023-04-13T14:57:05.846Z,20.54
2023-04-13T14:59:36.148Z,20.38
2023-04-13T15:02:04.972Z,20.25
2023-04-13T15:04:34.332Z,20.15
2023-04-13T15:07:03.321Z,20.11
2023-04-13T15:09:32.719Z,20.15
2023-04-13T15:12:01.466Z,20.13
2023-04-13T15:14:30.195Z,19.92
2023-04-13T15:17:00.187Z,19.76
2023-04-13T15:19:29.291Z,19.51
2023-04-13T15:21:58.380Z,19.26
2023-04-13T15:24:27.201Z,19.23
2023-04-13T15:26:56.349Z,19.16
2023-04-13T15:29:26.926Z,19.15
2023-04-13T15:31:55.876Z,19.00
2023-04-13T15:34:28.392Z,18.75
2023-04-13T15:36:59.537Z,18.54
2023-04-13T15:39:28.651Z,18.38
2023-04-13T15:41:59.726Z,18.37
2023-04-13T15:44:28.697Z,18.32
2023-04-13T15:46:57.938Z,18.15
2023-04-13T15:49:28.549Z,18.03
2023-04-13T15:51:57.594Z,17.86
2023-04-13T15:54:26.683Z,17.67
2023-04-13T15:56:55.458Z,17.50
2023-04-13T15:59:25.057Z,17.30
2023-04-13T16:01:59.245Z,17.11
2023-04-13T16:04:29.333Z,16.92
2023-04-13T16:07:11.945Z,16.74
2023-04-13T16:09:44.065Z,16.56
2023-04-13T16:12:12.945Z,16.43
2023-04-13T16:14:44.990Z,16.27
2023-04-13T16:17:15.435Z,16.16
2023-04-13T16:19:47.580Z,16.03
2023-04-13T16:22:18.257Z,15.94
2023-04-13T16:24:47.367Z,15.85
2023-04-13T16:27:15.918Z,15.73
2023-04-13T16:29:45.657Z,15.61
2023-04-13T16:32:14.323Z,15.48
2023-04-13T16:34:43.448Z,15.33
2023-04-13T16:37:14.126Z,15.19
2023-04-13T16:39:44.475Z,15.03
2023-04-13T16:42:13.357Z,14.89
2023-04-13T16:44:42.584Z,14.84
2023-04-13T16:47:11.558Z,14.77
2023-04-13T16:49:40.498Z,14.73
2023-04-13T16:52:08.962Z,14.68
2023-04-13T16:54:44.205Z,14.59
2023-04-13T16:57:13.153Z,14.50
2023-04-13T16:59:42.441Z,14.41
2023-04-13T17:02:24.328Z,14.34
2023-04-13T17:05:01.672Z,14.25
2023-04-13T17:07:31.330Z,14.16
2023-04-13T17:10:01.634Z,14.07
2023-04-13T17:12:30.693Z,13.98
2023-04-13T17:15:01.813Z,13.92
2023-04-13T17:17:30.829Z,13.85
2023-04-13T17:19:59.791Z,13.81
2023-04-13T17:22:28.602Z,13.78
2023-04-13T17:24:57.642Z,13.73
2023-04-13T17:27:28.002Z,13.71
2023-04-13T17:29:56.645Z,13.74
2023-04-13T17:32:27.547Z,13.74
2023-04-13T17:34:57.504Z,13.70
2023-04-13T17:37:26.815Z,13.64
2023-04-13T17:39:56.639Z,13.61
2023-04-13T17:42:28.532Z,13.60
2023-04-13T17:44:57.508Z,13.60
2023-04-13T17:47:26.575Z,13.58
2023-04-13T17:49:55.873Z,13.58
2023-04-13T17:52:26.634Z,13.61
2023-04-13T17:54:55.438Z,13.64
2023-04-13T17:57:24.531Z,13.64
2023-04-13T17:59:55.678Z,13.61
2023-04-13T18:02:25.071Z,13.64
2023-04-13T18:04:54.104Z,13.73
2023-04-13T18:07:23.399Z,13.73
2023-04-13T18:09:52.396Z,13.73
2023-04-13T18:12:21.213Z,13.77
2023-04-13T18:14:50.082Z,13.79
2023-04-13T18:17:21.823Z,13.79
2023-04-13T18:19:52.955Z,13.68
2023-04-13T18:22:22.369Z,13.56
2023-04-13T18:24:51.925Z,13.51
2023-04-13T18:27:23.484Z,13.45
2023-04-13T18:29:52.684Z,13.37
2023-04-13T18:32:23.323Z,13.33
2023-04-13T18:34:52.693Z,13.29
2023-04-13T18:37:21.587Z,13.30
2023-04-13T18:39:51.536Z,13.27
2023-04-13T18:42:20.268Z,13.24
2023-04-13T18:44:49.001Z,13.19
2023-04-13T18:47:19.407Z,13.10
2023-04-13T18:49:51.239Z,13.05
2023-04-13T18:52:20.265Z,13.04
2023-04-13T18:54:48.898Z,13.03
2023-04-13T18:57:18.818Z,12.94
2023-04-13T18:59:48.883Z,12.90
2023-04-13T19:02:18.556Z,12.85
2023-04-13T19:04:47.779Z,12.84
2023-04-13T19:07:18.954Z,12.83
2023-04-13T19:09:47.938Z,12.78
2023-04-13T19:12:18.660Z,12.65
2023-04-13T19:14:47.814Z,12.57
2023-04-13T19:17:17.053Z,12.54
2023-04-13T19:19:45.669Z,12.50
2023-04-13T19:22:14.247Z,12.45
2023-04-13T19:24:44.529Z,12.41
2023-04-13T19:27:13.465Z,12.34
2023-04-13T19:29:43.133Z,12.19
2023-04-13T19:32:16.992Z,12.10
2023-04-13T19:34:46.260Z,12.03
2023-04-13T19:37:14.916Z,12.01
2023-04-13T19:39:45.408Z,11.96
2023-04-13T19:42:14.372Z,11.87
2023-04-13T19:44:43.360Z,11.82
2023-04-13T19:47:12.720Z,11.84
2023-04-13T19:49:41.747Z,11.91
2023-04-13T19:52:16.541Z,11.93
2023-04-13T19:54:47.687Z,11.90
2023-04-13T19:57:16.957Z,11.88
2023-04-13T19:59:45.494Z,11.90
2023-04-13T20:02:15.094Z,11.86
2023-04-13T20:04:45.186Z,11.82
2023-04-13T20:07:14.350Z,11.78
2023-04-13T20:09:42.908Z,11.73
2023-04-13T20:12:14.380Z,11.64
2023-04-13T20:14:45.234Z,11.64
2023-04-13T20:17:16.492Z,11.63
2023-04-13T20:19:45.484Z,11.66
2023-04-13T20:22:18.531Z,11.66
2023-04-13T20:24:49.867Z,11.65
2023-04-13T20:27:22.564Z,11.63
2023-04-13T20:29:53.380Z,11.60
2023-04-13T20:32:22.169Z,11.57
2023-04-13T20:34:51.189Z,11.50
2023-04-13T20:37:19.969Z,11.47
2023-04-13T20:39:51.405Z,11.48
2023-04-13T20:42:22.605Z,11.47
2023-04-13T20:44:57.752Z,11.43
2023-04-13T20:47:28.731Z,11.41
2023-04-13T20:50:00.402Z,11.45
2023-04-13T20:52:30.383Z,11.48
2023-04-13T20:55:00.655Z,11.48
2023-04-13T20:57:31.872Z,11.47
2023-04-13T21:00:06.726Z,11.44
2023-04-13T21:02:36.492Z,11.43
2023-04-13T21:05:06.632Z,11.42
2023-04-13T21:07:35.571Z,11.41
2023-04-13T21:10:05.689Z,11.37
2023-04-13T21:12:36.578Z,11.32
2023-04-13T21:15:05.615Z,11.24
2023-04-13T21:17:37.176Z,11.17
2023-04-13T21:20:09.106Z,11.10
2023-04-13T21:22:38.719Z,11.03
2023-04-13T21:25:08.304Z,11.00
2023-04-13T21:27:38.558Z,10.95
2023-04-13T21:30:08.527Z,10.90
2023-04-13T21:32:37.204Z,10.89
2023-04-13T21:35:06.718Z,10.91
2023-04-13T21:37:35.945Z,10.89
2023-04-13T21:40:04.789Z,10.87
2023-04-13T21:42:33.335Z,10.87
2023-04-13T21:45:03.770Z,10.84
2023-04-13T21:47:33.334Z,10.80
2023-04-13T21:50:02.167Z,10.76
2023-04-13T21:52:30.749Z,10.72
2023-04-13T21:55:04.356Z,10.71
2023-04-13T21:57:32.983Z,10.72
2023-04-13T22:00:05.640Z,10.72
2023-04-13T22:02:40.946Z,10.72
2023-04-13T22:05:11.169Z,10.72
2023-04-13T22:07:43.270Z,10.68
2023-04-13T22:10:12.866Z,10.68
2023-04-13T22:12:41.603Z,10.69
2023-04-13T22:15:13.110Z,10.70
2023-04-13T22:17:41.585Z,10.70
2023-04-13T22:20:10.957Z,10.70
2023-04-13T22:22:39.517Z,10.75
2023-04-13T22:25:08.390Z,10.78
2023-04-13T22:27:37.868Z,10.78
2023-04-13T22:30:08.602Z,10.78
2023-04-13T22:32:38.754Z,10.71
2023-04-13T22:35:08.102Z,10.69
2023-04-13T22:37:37.042Z,10.66
2023-04-13T22:40:06.568Z,10.62
2023-04-13T22:42:35.128Z,10.56
2023-04-13T22:45:03.664Z,10.58
2023-04-13T22:47:32.176Z,10.57
2023-04-13T22:50:02.653Z,10.58
2023-04-13T22:52:31.209Z,10.58
2023-04-13T22:54:59.730Z,10.58
2023-04-13T22:57:28.263Z,10.57
2023-04-13T22:59:57.141Z,10.56
2023-04-13T23:02:25.751Z,10.58
2023-04-13T23:04:54.445Z,10.56
2023-04-13T23:07:24.258Z,10.54
2023-04-13T23:09:53.409Z,10.51
2023-04-13T23:12:22.184Z,10.46
2023-04-13T23:14:52.688Z,10.41
2023-04-13T23:17:22.168Z,10.37
2023-04-13T23:19:54.114Z,10.34
2023-04-13T23:22:24.737Z,10.33
2023-04-13T23:24:54.421Z,10.30
2023-04-13T23:27:23.107Z,10.30
2023-04-13T23:29:51.808Z,10.32
2023-04-13T23:32:20.351Z,10.31
2023-04-13T23:34:48.854Z,10.29
2023-04-13T23:37:17.497Z,10.29
2023-04-13T23:39:47.476Z,10.27
2023-04-13T23:42:16.310Z,10.28
2023-04-13T23:44:45.525Z,10.32
2023-04-13T23:47:14.240Z,10.34
2023-04-13T23:49:43.536Z,10.34
2023-04-13T23:52:11.941Z,10.33
2023-04-13T23:54:40.737Z,10.34
2023-04-13T23:57:12.759Z,10.35
2023-04-13T23:59:41.620Z,10.35
